Time;durP1;ratioP1;P1;durP2;ratioP2;P2;SDS_P1;SDS_P2;PMS_P1;PMS_P2;Temp;Humidity;BMP_temperature;BMP_pressure;BME280_temperature;BME280_humidity;BME280_pressure;Samples;Min_cycle;Max_cycle;Signal;HPM_P1;HPM_P2
2023/04/01 00:00:53;;;;;;;94.37;18.93;;;9.60;99.90;;;;;;4930787;28;39068;-76
2023/04/01 00:03:20;;;;;;;98.60;19.07;;;9.60;99.90;;;;;;4947439;28;37073;-78
2023/04/01 00:05:46;;;;;;;105.73;20.67;;;9.60;99.90;;;;;;4963885;28;38606;-77
2023/04/01 00:08:13;;;;;;;104.30;21.00;;;9.60;99.90;;;;;;4951415;28;39021;-77
2023/04/01 00:10:39;;;;;;;92.20;18.60;;;9.60;99.90;;;;;;4940282;28;38420;-77
2023/04/01 00:13:06;;;;;;;119.37;20.83;;;9.60;99.90;;;;;;4929564;28;36902;-76
2023/04/01 00:15:32;;;;;;;106.00;20.47;;;9.50;99.90;;;;;;4933928;28;36676;-76
2023/04/01 00:17:58;;;;;;;104.27;19.00;;;9.50;99.90;;;;;;4949498;28;39971;-77
2023/04/01 00:20:25;;;;;;;89.17;18.37;;;9.50;99.90;;;;;;4945308;28;38402;-77
2023/04/01 00:22:51;;;;;;;90.33;18.50;;;9.50;99.90;;;;;;4942916;28;37291;-77
2023/04/01 00:25:18;;;;;;;112.43;19.13;;;9.50;99.90;;;;;;4930173;28;36441;-76
2023/04/01 00:27:44;;;;;;;72.10;16.40;;;9.50;99.90;;;;;;4959552;28;38687;-76
2023/04/01 00:30:10;;;;;;;82.87;16.03;;;9.50;99.90;;;;;;4946998;28;38823;-76
2023/04/01 00:32:37;;;;;;;90.53;17.13;;;9.50;99.90;;;;;;4948343;28;37699;-77
2023/04/01 00:35:04;;;;;;;103.53;17.73;;;9.50;99.90;;;;;;4934088;28;37410;-76
2023/04/01 00:37:30;;;;;;;63.17;14.73;;;9.50;99.90;;;;;;4924870;28;39097;-76
2023/04/01 00:39:57;;;;;;;91.07;17.13;;;9.40;99.90;;;;;;4929075;28;38708;-77
2023/04/01 00:42:25;;;;;;;69.40;14.70;;;9.50;99.90;;;;;;4929274;28;37233;-76
2023/04/01 00:44:53;;;;;;;93.20;19.53;;;9.40;99.90;;;;;;4938925;28;39070;-77
2023/04/01 00:47:20;;;;;;;80.17;18.67;;;9.40;99.90;;;;;;4931575;28;38644;-75
2023/04/01 00:49:52;;;;;;;84.50;17.10;;;9.50;99.90;;;;;;4932570;28;37591;-76
2023/04/01 00:52:22;;;;;;;76.95;17.13;;;9.40;99.90;;;;;;4929069;28;36935;-77
2023/04/01 00:54:52;;;;;;;62.53;15.13;;;9.40;99.90;;;;;;4922440;28;36364;-76
2023/04/01 00:57:37;;;;;;;58.93;15.03;;;9.40;99.90;;;;;;4953748;28;38659;-77
2023/04/01 01:00:09;;;;;;;71.93;17.33;;;9.40;99.90;;;;;;4926068;28;39223;-76
2023/04/01 01:02:35;;;;;;;78.00;15.02;;;9.40;99.90;;;;;;5322806;23;38261;-78
2023/04/01 01:05:01;;;;;;;73.67;16.87;;;9.40;99.90;;;;;;4912286;28;35238;-77
2023/04/01 01:08:01;;;;;;;88.00;18.23;;;9.40;99.90;;;;;;4929251;28;38872;-76
2023/04/01 01:10:33;;;;;;;66.30;14.33;;;9.40;99.90;;;;;;4924457;28;48902;-77
2023/04/01 01:13:23;;;;;;;60.90;14.73;;;9.40;99.90;;;;;;4934222;28;38495;-77
2023/04/01 01:16:18;;;;;;;61.77;14.27;;;9.40;99.90;;;;;;4915634;29;47302;-79
2023/04/01 01:18:59;;;;;;;63.20;14.70;;;9.30;99.90;;;;;;4915745;29;47053;-77
2023/04/01 01:21:47;;;;;;;55.07;13.77;;;9.40;99.90;;;;;;4918197;28;36881;-77
2023/04/01 01:24:42;;;;;;;53.33;12.03;;;9.40;99.90;;;;;;4906523;29;37222;-76
2023/04/01 01:27:17;;;;;;;64.77;15.23;;;9.30;99.90;;;;;;4921652;28;36327;-77
2023/04/01 01:30:11;;;;;;;53.23;13.27;;;9.30;99.90;;;;;;4922730;29;37613;-78
2023/04/01 01:33:10;;;;;;;54.53;14.83;;;9.30;99.90;;;;;;4914067;29;47490;-77
2023/04/01 01:35:49;;;;;;;51.37;14.17;;;9.30;99.90;;;;;;4937415;28;47566;-77
2023/04/01 01:38:19;;;;;;;50.57;14.07;;;9.30;99.90;;;;;;4919543;28;36734;-77
2023/04/01 01:40:51;;;;;;;69.53;16.03;;;9.40;99.90;;;;;;4917750;28;38716;-76
2023/04/01 01:43:49;;;;;;;76.28;17.60;;;9.40;99.90;;;;;;4929505;28;37293;-77
2023/04/01 01:46:20;;;;;;;62.63;15.33;;;9.30;99.90;;;;;;4917253;28;38751;-77
2023/04/01 01:48:48;;;;;;;74.40;18.97;;;9.40;99.90;;;;;;4917831;29;37259;-77
2023/04/01 01:51:15;;;;;;;49.97;16.20;;;9.40;99.90;;;;;;4924790;28;37791;-77
2023/04/01 01:53:41;;;;;;;51.97;15.90;;;9.40;99.90;;;;;;4919309;28;37314;-77
2023/04/01 01:56:08;;;;;;;79.77;18.90;;;9.30;99.90;;;;;;4923137;29;37047;-76
2023/04/01 01:58:42;;;;;;;80.63;20.27;;;9.40;99.90;;;;;;4913022;29;37430;-77
2023/04/01 02:01:16;;;;;;;68.97;17.50;;;9.40;99.90;;;;;;4926636;28;38841;-77
2023/04/01 02:03:44;;;;;;;67.77;17.37;;;9.30;99.90;;;;;;4939588;28;38924;-77
2023/04/01 02:06:14;;;;;;;68.57;17.57;;;9.30;99.90;;;;;;4921608;29;37279;-77
2023/04/01 02:08:48;;;;;;;76.83;19.00;;;9.30;99.90;;;;;;4922513;29;36411;-76
2023/04/01 02:11:19;;;;;;;56.47;13.93;;;9.40;99.90;;;;;;4936051;28;38742;-76
2023/04/01 02:14:05;;;;;;;47.60;12.37;;;9.30;99.90;;;;;;4927872;28;37607;-76
2023/04/01 02:16:46;;;;;;;34.03;10.47;;;9.30;99.90;;;;;;4934727;28;47717;-76
2023/04/01 02:19:13;;;;;;;34.60;10.40;;;9.30;99.90;;;;;;4920387;28;36852;-77
2023/04/01 02:21:41;;;;;;;33.43;10.40;;;9.30;99.90;;;;;;4919892;28;38010;-77
2023/04/01 02:24:12;;;;;;;36.00;9.90;;;9.30;99.90;;;;;;4935360;28;39932;-77
2023/04/01 02:26:38;;;;;;;36.17;9.00;;;9.40;99.90;;;;;;4936200;28;37842;-77
2023/04/01 02:29:06;;;;;;;36.67;10.17;;;9.30;99.90;;;;;;4937842;28;38201;-78
2023/04/01 02:31:34;;;;;;;31.83;9.37;;;9.30;99.90;;;;;;4925834;29;38000;-77
2023/04/01 02:34:01;;;;;;;30.87;9.57;;;9.30;99.90;;;;;;4919493;29;37331;-77
2023/04/01 02:36:28;;;;;;;25.17;9.67;;;9.50;99.90;;;;;;4910535;29;47143;-77
2023/04/01 02:38:55;;;;;;;24.47;8.93;;;9.30;99.90;;;;;;4910696;28;36046;-77
2023/04/01 02:41:22;;;;;;;31.50;9.20;;;9.30;99.90;;;;;;4940682;28;38460;-77
2023/04/01 02:43:48;;;;;;;21.63;7.47;;;9.40;99.90;;;;;;4930132;28;39029;-77
2023/04/01 02:46:14;;;;;;;15.53;6.33;;;9.40;99.90;;;;;;4929629;28;37075;-77
2023/04/01 02:48:40;;;;;;;20.53;6.37;;;9.40;99.90;;;;;;4933898;28;38321;-77
2023/04/01 02:51:08;;;;;;;18.40;7.13;;;9.40;99.90;;;;;;4939841;28;38454;-77
2023/04/01 02:53:34;;;;;;;19.10;6.10;;;9.30;99.90;;;;;;4934825;28;39531;-77
2023/04/01 02:56:00;;;;;;;15.53;5.97;;;9.40;99.90;;;;;;4915510;29;37172;-78
2023/04/01 02:58:26;;;;;;;14.67;6.40;;;9.40;99.90;;;;;;4935784;28;35949;-77
2023/04/01 03:00:52;;;;;;;11.57;5.00;;;9.40;99.90;;;;;;4912425;29;39009;-78
2023/04/01 03:03:18;;;;;;;7.40;4.53;;;9.40;99.90;;;;;;4908394;29;39101;-77
2023/04/01 03:05:44;;;;;;;12.73;5.73;;;9.40;99.90;;;;;;4896643;29;36846;-77
2023/04/01 03:08:11;;;;;;;10.73;6.43;;;9.40;99.90;;;;;;4899089;29;37356;-77
2023/04/01 03:10:37;;;;;;;16.50;9.50;;;9.40;99.90;;;;;;4898159;29;38886;-77
2023/04/01 03:13:03;;;;;;;20.70;11.27;;;9.50;99.90;;;;;;4911216;29;38813;-78
2023/04/01 03:15:30;;;;;;;28.17;14.43;;;9.50;99.90;;;;;;4914095;29;39102;-77
2023/04/01 03:17:56;;;;;;;31.20;16.87;;;9.50;99.90;;;;;;4903225;29;36812;-77
2023/04/01 03:20:22;;;;;;;35.03;18.70;;;9.50;99.90;;;;;;4907523;29;39916;-77
2023/04/01 03:22:48;;;;;;;36.13;19.87;;;9.60;99.90;;;;;;4892859;29;37145;-77
2023/04/01 03:25:14;;;;;;;41.00;19.60;;;9.60;99.90;;;;;;4897569;29;38556;-77
2023/04/01 03:27:40;;;;;;;42.70;20.40;;;9.60;99.90;;;;;;4916607;29;38475;-77
2023/04/01 03:30:08;;;;;;;47.63;20.70;;;9.70;99.90;;;;;;4914272;29;38687;-78
2023/04/01 03:32:34;;;;;;;37.13;16.97;;;9.70;99.90;;;;;;4913162;29;38063;-77
2023/04/01 03:35:00;;;;;;;37.80;15.23;;;9.70;99.90;;;;;;4903735;29;37076;-78
2023/04/01 03:37:27;;;;;;;57.67;19.77;;;9.70;99.90;;;;;;4898799;29;36491;-78
2023/04/01 03:39:54;;;;;;;52.23;17.10;;;9.70;99.90;;;;;;4896358;29;38687;-78
2023/04/01 03:42:20;;;;;;;45.13;17.00;;;9.70;99.90;;;;;;4897589;29;37354;-77
2023/04/01 03:44:46;;;;;;;41.73;13.77;;;9.70;99.90;;;;;;4918888;29;37946;-77
2023/04/01 03:47:12;;;;;;;44.47;15.97;;;9.70;99.90;;;;;;4908081;29;35924;-78
2023/04/01 03:49:38;;;;;;;31.80;13.47;;;9.60;99.90;;;;;;4907447;29;38845;-77
2023/04/01 03:52:09;;;;;;;49.50;17.20;;;9.70;99.90;;;;;;4899802;29;37057;-78
2023/04/01 03:54:35;;;;;;;47.97;14.60;;;9.70;99.90;;;;;;4901882;29;37368;-78
2023/04/01 03:57:01;;;;;;;33.23;12.87;;;9.70;99.90;;;;;;4896196;29;36706;-77
2023/04/01 03:59:27;;;;;;;32.37;12.40;;;9.60;99.90;;;;;;4905307;29;47352;-78
2023/04/01 04:01:54;;;;;;;33.83;13.90;;;9.70;99.90;;;;;;4892850;29;38574;-77
2023/04/01 04:04:20;;;;;;;55.27;18.67;;;9.60;99.90;;;;;;4915446;29;35807;-77
2023/04/01 04:06:46;;;;;;;46.23;17.37;;;9.70;99.90;;;;;;4924022;28;36334;-77
2023/04/01 04:09:12;;;;;;;52.57;16.97;;;9.70;99.90;;;;;;4934793;28;39094;-77
2023/04/01 04:11:38;;;;;;;59.40;19.07;;;9.60;99.90;;;;;;4933832;28;37693;-77
2023/04/01 04:14:04;;;;;;;53.50;18.53;;;9.60;99.90;;;;;;4913510;28;36836;-79
2023/04/01 04:16:30;;;;;;;54.40;17.43;;;9.50;99.90;;;;;;4927105;28;35693;-79
2023/04/01 04:18:57;;;;;;;55.30;17.30;;;9.50;99.90;;;;;;4924796;28;37894;-77
2023/04/01 04:21:23;;;;;;;50.40;17.47;;;9.60;99.90;;;;;;4931667;28;38281;-77
2023/04/01 04:23:51;;;;;;;49.10;17.57;;;9.60;99.90;;;;;;4913657;28;38349;-78
2023/04/01 04:26:17;;;;;;;41.33;17.10;;;9.60;99.90;;;;;;4934857;28;37087;-78
2023/04/01 04:28:43;;;;;;;49.87;17.10;;;9.60;99.90;;;;;;4916963;29;38845;-77
2023/04/01 04:31:10;;;;;;;53.73;17.23;;;9.60;99.90;;;;;;4915929;28;37574;-77
2023/04/01 04:33:36;;;;;;;37.10;13.97;;;9.60;99.90;;;;;;4935139;28;38085;-78
2023/04/01 04:36:04;;;;;;;37.57;13.47;;;9.60;99.90;;;;;;4929105;28;37856;-78
2023/04/01 04:38:30;;;;;;;34.97;12.80;;;9.60;99.90;;;;;;4920410;28;38781;-79
2023/04/01 04:40:56;;;;;;;36.20;13.53;;;9.60;99.90;;;;;;4929064;28;38665;-77
2023/04/01 04:43:22;;;;;;;32.77;13.27;;;9.60;99.90;;;;;;4916725;28;37105;-77
2023/04/01 04:45:49;;;;;;;36.77;14.03;;;9.60;99.90;;;;;;4927481;28;41053;-77
2023/04/01 04:48:18;;;;;;;30.13;13.13;;;9.60;99.90;;;;;;4912584;28;37580;-77
2023/04/01 04:50:49;;;;;;;29.23;12.90;;;9.60;99.90;;;;;;4905253;29;37686;-79
2023/04/01 04:53:17;;;;;;;39.70;15.83;;;9.60;99.90;;;;;;4932039;28;38656;-77
2023/04/01 04:55:48;;;;;;;32.03;15.33;;;9.60;99.90;;;;;;4922269;28;36545;-77
2023/04/01 04:58:15;;;;;;;34.17;16.13;;;9.70;99.90;;;;;;4934330;28;38908;-78
2023/04/01 05:00:42;;;;;;;38.47;15.50;;;9.50;99.90;;;;;;4912802;28;38129;-77
2023/04/01 05:03:09;;;;;;;36.63;17.00;;;9.60;99.90;;;;;;4910682;28;37163;-78
2023/04/01 05:05:35;;;;;;;46.57;18.20;;;9.60;99.90;;;;;;4910111;28;37754;-78
2023/04/01 05:08:01;;;;;;;47.23;18.63;;;9.60;99.90;;;;;;4919100;28;39726;-77
2023/04/01 05:10:28;;;;;;;38.30;15.80;;;9.60;99.90;;;;;;4918752;28;47159;-78
2023/04/01 05:12:54;;;;;;;33.43;16.43;;;9.60;99.90;;;;;;4929356;28;38361;-79
2023/04/01 05:15:20;;;;;;;51.53;18.60;;;9.50;99.90;;;;;;4911582;28;36534;-78
2023/04/01 05:17:46;;;;;;;43.17;17.73;;;9.60;99.90;;;;;;4911863;29;39209;-78
2023/04/01 05:20:13;;;;;;;46.27;18.63;;;9.60;99.90;;;;;;4913316;28;37253;-78
2023/04/01 05:22:40;;;;;;;49.10;19.70;;;9.60;99.90;;;;;;4916925;29;39073;-78
2023/04/01 05:25:06;;;;;;;33.33;15.53;;;9.60;99.90;;;;;;4933250;28;38295;-79
2023/04/01 05:27:33;;;;;;;43.10;19.60;;;9.60;99.90;;;;;;4918707;28;37786;-77
2023/04/01 05:29:59;;;;;;;34.77;17.93;;;9.50;99.90;;;;;;4933159;28;38665;-78
2023/04/01 05:32:26;;;;;;;41.43;18.23;;;9.50;99.90;;;;;;4915987;29;36971;-78
2023/04/01 05:34:52;;;;;;;39.87;16.97;;;9.60;99.90;;;;;;4916011;29;38636;-78
2023/04/01 05:37:19;;;;;;;35.97;16.23;;;9.50;99.90;;;;;;4943868;28;38341;-78
2023/04/01 05:39:45;;;;;;;41.50;19.27;;;9.50;99.90;;;;;;4937947;28;38986;-78
2023/04/01 05:42:11;;;;;;;39.93;15.37;;;9.50;99.90;;;;;;4918251;29;40486;-78
2023/04/01 05:44:37;;;;;;;43.63;16.33;;;9.60;99.90;;;;;;4912330;29;37027;-79
2023/04/01 05:47:04;;;;;;;34.27;14.50;;;9.50;99.90;;;;;;4944520;28;39059;-79
2023/04/01 05:49:32;;;;;;;37.70;15.33;;;9.40;99.90;;;;;;4947322;28;38733;-78
2023/04/01 05:51:59;;;;;;;33.43;15.17;;;9.40;99.90;;;;;;4921993;29;37355;-78
2023/04/01 05:54:25;;;;;;;36.57;13.33;;;9.50;99.90;;;;;;4920004;29;36646;-77
2023/04/01 05:56:51;;;;;;;38.60;14.63;;;9.40;99.90;;;;;;4937610;28;39129;-78
2023/04/01 05:59:17;;;;;;;37.77;16.00;;;9.40;99.90;;;;;;4937152;28;39546;-78
2023/04/01 06:01:43;;;;;;;36.77;14.90;;;9.50;99.90;;;;;;4908835;29;38335;-80
2023/04/01 06:04:15;;;;;;;39.93;15.60;;;9.40;99.90;;;;;;4925754;28;36560;-80
2023/04/01 06:06:41;;;;;;;33.63;15.93;;;9.40;99.90;;;;;;4922974;29;38707;-78
2023/04/01 06:09:21;;;;;;;35.13;14.03;;;9.40;99.90;;;;;;4935755;28;37570;-80
2023/04/01 06:12:20;;;;;;;36.47;15.33;;;9.40;99.90;;;;;;4917648;29;37426;-78
2023/04/01 06:15:08;;;;;;;35.67;14.73;;;9.40;99.90;;;;;;4915601;29;47495;-78
2023/04/01 06:17:52;;;;;;;30.07;13.73;;;9.50;99.90;;;;;;4918478;29;47312;-80
2023/04/01 06:20:30;;;;;;;35.50;16.77;;;9.50;99.90;;;;;;4939875;28;37369;-78
2023/04/01 06:23:28;;;;;;;33.37;15.00;;;9.40;99.90;;;;;;4936732;28;37211;-78
2023/04/01 06:26:06;;;;;;;40.97;18.17;;;9.40;99.90;;;;;;4919150;29;47417;-77
2023/04/01 06:29:16;;;;;;;39.97;17.13;;;9.40;99.90;;;;;;4909081;29;46970;-78
2023/04/01 06:32:07;;;;;;;38.70;16.80;;;9.40;99.90;;;;;;4913848;28;47909;-78
2023/04/01 06:35:04;;;;;;;40.57;17.33;;;9.40;99.90;;;;;;4926779;28;48952;-79
2023/04/01 06:37:51;;;;;;;40.87;20.17;;;9.40;99.90;;;;;;4905575;29;47246;-79
2023/04/01 06:40:24;;;;;;;41.87;19.47;;;9.40;99.90;;;;;;4912727;28;37958;-78
2023/04/01 06:43:01;;;;;;;40.95;20.40;;;9.40;99.90;;;;;;4930099;28;37256;-78
2023/04/01 06:45:37;;;;;;;49.30;20.73;;;9.50;99.90;;;;;;4917076;29;46465;-80
2023/04/01 06:48:14;;;;;;;39.27;20.07;;;9.50;99.90;;;;;;4904533;28;36398;-80
2023/04/01 06:50:52;;;;;;;37.50;16.47;;;9.40;99.90;;;;;;4917288;29;39535;-78
2023/04/01 06:53:30;;;;;;;44.47;17.67;;;9.50;99.90;;;;;;4931615;28;37664;-78
2023/04/01 06:56:07;;;;;;;29.30;14.43;;;9.50;99.90;;;;;;4934120;28;38512;-78
2023/04/01 06:58:46;;;;;;;30.83;14.83;;;9.50;99.90;;;;;;4939534;28;48593;-78
2023/04/01 07:01:17;;;;;;;39.07;16.53;;;9.50;99.90;;;;;;4924450;28;37441;-78
2023/04/01 07:03:51;;;;;;;38.17;16.30;;;9.60;99.90;;;;;;4923018;29;38988;-78
2023/04/01 07:06:30;;;;;;;27.73;14.17;;;9.60;99.90;;;;;;4932648;28;38646;-78
2023/04/01 07:09:02;;;;;;;26.77;14.70;;;9.60;99.90;;;;;;4935652;28;20115;-78
2023/04/01 07:11:34;;;;;;;32.83;15.10;;;9.60;99.90;;;;;;4912321;28;47526;-79
2023/04/01 07:14:03;;;;;;;27.00;13.63;;;9.70;99.90;;;;;;4923990;28;39015;-80
2023/04/01 07:16:36;;;;;;;18.17;11.40;;;9.70;99.90;;;;;;4928794;28;48816;-80
2023/04/01 07:19:01;;;;;;;;;;;9.70;99.90;;;;;;4934470;28;37994;-79
2023/04/01 07:21:40;;;;;;;24.00;12.27;;;9.60;99.90;;;;;;4918329;28;39596;-79
2023/04/01 07:24:13;;;;;;;15.50;9.17;;;9.70;99.90;;;;;;4917506;28;37642;-79
2023/04/01 07:26:40;;;;;;;19.93;9.80;;;9.70;99.90;;;;;;4921525;29;38331;-81
2023/04/01 07:29:10;;;;;;;17.97;9.40;;;9.70;99.90;;;;;;4906817;29;36000;-81
2023/04/01 07:31:39;;;;;;;15.47;8.33;;;9.80;99.90;;;;;;4936149;28;38474;-84
2023/04/01 07:34:36;;;;;;;11.37;6.47;;;9.80;99.90;;;;;;4954638;28;39867;-81
2023/04/01 07:37:37;;;;;;;13.20;7.53;;;9.80;99.90;;;;;;4947562;28;38045;-84
2023/04/01 07:40:30;;;;;;;11.27;7.17;;;9.80;99.90;;;;;;4927427;28;47503;-83
2023/04/01 07:43:18;;;;;;;10.13;6.10;;;9.80;99.90;;;;;;4946933;28;49284;-83
2023/04/01 07:46:17;;;;;;;7.33;5.47;;;9.90;99.90;;;;;;4928409;29;47066;-82
2023/04/01 07:49:01;;;;;;;7.63;4.73;;;9.90;99.90;;;;;;4933443;28;47062;-83
2023/04/01 07:51:31;;;;;;;7.77;4.03;;;9.80;99.90;;;;;;4923261;29;47231;-83
2023/04/01 07:53:57;;;;;;;9.53;4.40;;;9.80;99.90;;;;;;4922358;29;37534;-82
2023/04/01 07:56:51;;;;;;;5.80;4.20;;;9.90;99.90;;;;;;4944671;28;38577;-83
2023/04/01 07:59:22;;;;;;;4.93;3.90;;;9.80;99.90;;;;;;4960885;28;38001;-83
2023/04/01 08:02:13;;;;;;;5.90;4.10;;;9.80;99.90;;;;;;4961355;28;35605;-83
2023/04/01 08:05:00;;;;;;;6.50;4.40;;;9.90;99.90;;;;;;4955786;28;49277;-82
2023/04/01 08:07:58;;;;;;;7.50;4.33;;;9.80;99.90;;;;;;4925570;28;36954;-82
2023/04/01 08:10:34;;;;;;;6.70;3.93;;;9.80;99.90;;;;;;4923932;29;36879;-82
2023/04/01 08:13:34;;;;;;;7.17;4.57;;;9.80;99.90;;;;;;4934251;28;37448;-82
2023/04/01 08:16:31;;;;;;;7.70;4.23;;;10.00;99.90;;;;;;4911884;29;46973;-78
2023/04/01 08:19:17;;;;;;;9.00;5.13;;;10.00;99.90;;;;;;4924904;28;46897;-79
2023/04/01 08:21:56;;;;;;;10.10;5.43;;;10.00;99.90;;;;;;4926215;28;48118;-78
2023/04/01 08:24:34;;;;;;;8.83;5.57;;;10.00;99.90;;;;;;4912210;29;36353;-80
2023/04/01 08:27:05;;;;;;;9.33;6.57;;;10.00;99.90;;;;;;4925399;28;37827;-79
2023/04/01 08:29:59;;;;;;;13.53;7.53;;;9.90;99.90;;;;;;4919560;29;47333;-80
2023/04/01 08:32:34;;;;;;;17.43;10.10;;;9.90;99.90;;;;;;4915053;28;36889;-82
2023/04/01 08:35:30;;;;;;;16.93;9.80;;;9.90;99.90;;;;;;4921685;28;35820;-79
2023/04/01 08:38:05;;;;;;;18.77;10.33;;;9.90;99.90;;;;;;4910640;29;46891;-79
2023/04/01 08:40:49;;;;;;;18.17;11.30;;;9.80;99.90;;;;;;4926828;28;48541;-78
2023/04/01 08:43:36;;;;;;;19.47;10.90;;;9.90;99.90;;;;;;4912847;29;37291;-81
2023/04/01 08:46:24;;;;;;;22.63;11.67;;;9.90;99.90;;;;;;4920151;29;36319;-81
2023/04/01 08:49:02;;;;;;;20.97;11.73;;;9.90;99.90;;;;;;4929504;28;39098;-80
2023/04/01 08:51:42;;;;;;;21.43;11.93;;;9.90;99.90;;;;;;4909632;29;47127;-80
2023/04/01 08:54:38;;;;;;;27.00;12.47;;;10.00;99.90;;;;;;4937454;28;37243;-81
2023/04/01 08:57:21;;;;;;;19.57;9.93;;;10.10;99.90;;;;;;4910458;29;37344;-82
2023/04/01 09:00:17;;;;;;;16.88;9.60;;;10.10;99.90;;;;;;4935955;28;37755;-81
2023/04/01 09:03:31;;;;;;;18.00;8.93;;;10.10;99.90;;;;;;4905104;28;47409;-80
2023/04/01 09:06:21;;;;;;;20.13;9.50;;;10.00;99.90;;;;;;4903712;29;48767;-78
2023/04/01 09:08:50;;;;;;;20.17;9.90;;;10.10;99.90;;;;;;4910751;29;47400;-78
2023/04/01 09:11:52;;;;;;;22.50;10.75;;;10.00;99.90;;;;;;4915429;29;40004;-78
2023/04/01 09:14:41;;;;;;;18.50;10.23;;;10.10;99.90;;;;;;4908858;29;37430;-79
2023/04/01 09:17:28;;;;;;;25.73;10.37;;;10.10;99.90;;;;;;4906886;29;36874;-78
2023/04/01 09:20:32;;;;;;;21.93;10.13;;;10.10;99.90;;;;;;4927389;28;37129;-79
2023/04/01 09:23:18;;;;;;;26.00;12.63;;;10.20;99.90;;;;;;4918203;29;46932;-79
2023/04/01 09:26:12;;;;;;;31.83;13.27;;;10.10;99.90;;;;;;4916549;29;48350;-79
2023/04/01 09:29:15;;;;;;;28.93;12.53;;;10.10;99.90;;;;;;4911930;28;48874;-78
2023/04/01 09:32:15;;;;;;;29.53;12.90;;;10.10;99.90;;;;;;4917101;29;48133;-79
2023/04/01 09:35:03;;;;;;;25.33;12.20;;;10.10;99.90;;;;;;4913606;28;48771;-78
2023/04/01 09:37:35;;;;;;;23.70;9.60;;;10.20;99.90;;;;;;4908734;29;38227;-78
2023/04/01 09:40:10;;;;;;;21.55;9.10;;;10.20;99.90;;;;;;4922307;29;37366;-80
2023/04/01 09:42:56;;;;;;;21.40;9.70;;;10.30;99.90;;;;;;4910190;29;46960;-79
2023/04/01 09:45:53;;;;;;;20.57;10.03;;;10.40;99.90;;;;;;4903633;29;38962;-78
2023/04/01 09:48:25;;;;;;;24.60;9.83;;;10.30;99.90;;;;;;4923048;29;37351;-77
2023/04/01 09:51:13;;;;;;;17.50;9.85;;;10.30;99.90;;;;;;4924840;29;39384;-77
2023/04/01 09:53:52;;;;;;;16.83;7.63;;;10.30;99.90;;;;;;4903595;29;46983;-78
2023/04/01 09:56:42;;;;;;;19.47;8.83;;;10.30;99.90;;;;;;4909205;28;38224;-78
2023/04/01 09:59:47;;;;;;;21.83;10.60;;;10.30;99.90;;;;;;4935000;28;37222;-78
2023/04/01 10:02:37;;;;;;;16.73;9.93;;;10.40;99.90;;;;;;4857454;29;37884;-78
2023/04/01 10:05:22;;;;;;;22.67;10.73;;;10.50;99.90;;;;;;4909987;29;37863;-78
2023/04/01 10:08:01;;;;;;;22.70;10.45;;;10.50;99.90;;;;;;4913465;29;39046;-77
2023/04/01 10:10:58;;;;;;;24.30;10.38;;;10.50;99.90;;;;;;4921490;29;47588;-77
2023/04/01 10:13:30;;;;;;;20.27;10.13;;;10.60;99.90;;;;;;4916396;29;38603;-78
2023/04/01 10:16:33;;;;;;;16.27;8.65;;;10.60;99.90;;;;;;4917179;29;37259;-78
2023/04/01 10:19:24;;;;;;;17.02;10.10;;;10.70;99.90;;;;;;4913517;29;47590;-78
2023/04/01 10:22:09;;;;;;;20.98;10.23;;;10.80;99.90;;;;;;4923651;28;47450;-78
2023/04/01 10:24:56;;;;;;;18.55;9.63;;;10.70;99.90;;;;;;4914734;29;47748;-78
2023/04/01 10:27:44;;;;;;;14.98;8.38;;;10.70;99.90;;;;;;4914636;29;36383;-78
2023/04/01 10:30:28;;;;;;;12.70;7.95;;;10.70;99.90;;;;;;4912289;29;38865;-78
2023/04/01 10:33:06;;;;;;;17.45;9.13;;;10.60;99.90;;;;;;4910299;29;37329;-78
2023/04/01 10:35:45;;;;;;;16.13;9.10;;;10.60;99.90;;;;;;4926898;28;47234;-78
2023/04/01 10:38:25;;;;;;;12.95;8.50;;;10.60;99.90;;;;;;4914697;29;37045;-78
2023/04/01 10:41:20;;;;;;;18.63;9.30;;;10.70;99.90;;;;;;4916745;29;39622;-77
2023/04/01 10:44:11;;;;;;;13.43;8.13;;;10.60;99.90;;;;;;4913842;29;48863;-77
2023/04/01 10:47:08;;;;;;;16.50;9.05;;;10.60;99.90;;;;;;4903913;29;47762;-78
2023/04/01 10:49:34;;;;;;;15.20;8.23;;;10.50;99.90;;;;;;4921998;29;47535;-76
2023/04/01 10:52:24;;;;;;;13.95;7.80;;;10.50;99.90;;;;;;4930962;29;37615;-77
2023/04/01 10:55:32;;;;;;;16.13;8.20;;;10.40;99.90;;;;;;4919491;29;47048;-84
2023/04/01 10:58:07;;;;;;;17.10;8.70;;;10.50;99.90;;;;;;4900076;29;47209;-78
2023/04/01 11:00:42;;;;;;;14.53;8.53;;;10.40;99.90;;;;;;4913976;29;48520;-79
2023/04/01 11:03:40;;;;;;;14.05;8.13;;;10.40;99.90;;;;;;4906640;29;39222;-79
2023/04/01 11:06:38;;;;;;;19.30;9.40;;;10.30;99.90;;;;;;4904194;29;38119;-79
2023/04/01 11:09:26;;;;;;;19.77;10.10;;;10.40;99.90;;;;;;4882811;29;38020;-79
2023/04/01 11:12:13;;;;;;;20.05;9.65;;;10.40;99.90;;;;;;4906106;29;38096;-80
2023/04/01 11:14:54;;;;;;;23.23;11.35;;;10.30;99.90;;;;;;4920832;28;46978;-80
2023/04/01 11:17:42;;;;;;;19.30;10.87;;;10.50;99.90;;;;;;4904268;29;38583;-78
2023/04/01 11:20:17;;;;;;;21.90;12.10;;;10.30;99.90;;;;;;4904988;29;36064;-80
2023/04/01 11:23:10;;;;;;;22.73;11.43;;;10.30;99.90;;;;;;4904137;29;36234;-78
2023/04/01 11:25:48;;;;;;;17.75;10.93;;;10.20;99.90;;;;;;4912923;28;48219;-80
2023/04/01 11:28:38;;;;;;;21.60;11.60;;;10.20;99.90;;;;;;4905903;29;37160;-80
2023/04/01 11:31:31;;;;;;;25.13;11.97;;;10.20;99.90;;;;;;4919534;28;37118;-80
2023/04/01 11:34:21;;;;;;;24.80;12.55;;;10.20;99.90;;;;;;4902885;29;39107;-79
2023/04/01 11:37:09;;;;;;;26.73;13.40;;;10.20;99.90;;;;;;4925669;28;47147;-79
2023/04/01 11:40:10;;;;;;;22.63;12.00;;;10.20;99.90;;;;;;4901863;29;47196;-78
2023/04/01 11:42:54;;;;;;;21.17;11.77;;;10.20;99.90;;;;;;4868503;29;47138;-79
2023/04/01 11:45:28;;;;;;;23.70;11.93;;;10.30;99.90;;;;;;4902104;29;36174;-79
2023/04/01 11:48:32;;;;;;;23.83;12.57;;;10.30;99.90;;;;;;4911372;29;41003;-81
2023/04/01 11:51:16;;;;;;;;;;;10.40;99.90;;;;;;4908681;29;49215;-78
2023/04/01 11:54:27;;;;;;;23.60;11.03;;;10.40;99.90;;;;;;4927844;28;47318;-78
2023/04/01 11:57:20;;;;;;;18.40;10.50;;;10.40;99.90;;;;;;4908991;29;47229;-78
2023/04/01 11:59:57;;;;;;;16.38;8.73;;;10.60;99.90;;;;;;4901166;28;48456;-78
2023/04/01 12:02:48;;;;;;;19.95;10.73;;;10.50;99.90;;;;;;4911832;29;39704;-77
2023/04/01 12:05:22;;;;;;;22.85;9.85;;;10.50;99.90;;;;;;4921296;28;37158;-78
2023/04/01 12:08:10;;;;;;;21.77;11.13;;;10.50;99.90;;;;;;4921585;29;37618;-78
2023/04/01 12:10:51;;;;;;;21.27;11.13;;;10.60;99.90;;;;;;4904683;29;47192;-78
2023/04/01 12:13:44;;;;;;;25.23;11.88;;;10.70;99.90;;;;;;4935176;28;38617;-78
2023/04/01 12:16:25;;;;;;;25.92;11.30;;;10.70;99.90;;;;;;4918203;28;38028;-78
2023/04/01 12:19:20;;;;;;;22.17;10.90;;;10.70;99.90;;;;;;4916694;28;36311;-79
2023/04/01 12:22:07;;;;;;;23.13;10.82;;;10.70;99.90;;;;;;4905997;28;48647;-78
2023/04/01 12:24:42;;;;;;;19.63;9.00;;;10.60;99.90;;;;;;4910878;28;47005;-78
2023/04/01 12:27:35;;;;;;;27.67;12.10;;;10.60;99.90;;;;;;4914444;29;37571;-78
2023/04/01 12:30:20;;;;;;;;;;;10.50;99.90;;;;;;4909257;28;36059;-79
2023/04/01 12:33:18;;;;;;;23.13;9.97;;;10.60;99.90;;;;;;4919012;28;47316;-78
2023/04/01 12:36:03;;;;;;;20.63;9.20;;;10.60;99.90;;;;;;4930377;28;48977;-79
2023/04/01 12:38:52;;;;;;;19.47;8.93;;;10.70;99.90;;;;;;4939272;28;48753;-78
2023/04/01 12:41:45;;;;;;;18.23;8.87;;;10.60;99.90;;;;;;4916786;29;36103;-79
2023/04/01 12:44:35;;;;;;;15.67;8.13;;;10.60;99.90;;;;;;4909935;29;37736;-79
2023/04/01 12:47:18;;;;;;;16.33;8.37;;;10.50;99.90;;;;;;4911644;28;38418;-79
2023/04/01 12:49:56;;;;;;;;;;;10.50;99.90;;;;;;4928700;28;46928;-78
2023/04/01 12:52:41;;;;;;;14.83;7.20;;;10.70;99.90;;;;;;4911763;29;36417;-78
2023/04/01 12:55:33;;;;;;;17.40;7.93;;;10.70;99.90;;;;;;4907157;29;38263;-79
2023/04/01 12:58:36;;;;;;;14.00;7.93;;;10.80;99.90;;;;;;4923703;28;39493;-76
2023/04/01 13:01:11;;;;;;;16.70;7.38;;;10.90;99.90;;;;;;4910297;28;48124;-78
2023/04/01 13:03:55;;;;;;;11.35;6.43;;;10.80;99.90;;;;;;4911216;29;35801;-77
2023/04/01 13:06:44;;;;;;;17.57;7.93;;;10.80;99.90;;;;;;4899145;29;38414;-77
2023/04/01 13:09:40;;;;;;;13.05;7.65;;;10.80;99.90;;;;;;4893865;29;37667;-79
2023/04/01 13:12:10;;;;;;;13.85;7.90;;;10.90;99.90;;;;;;4880058;29;37034;-79
2023/04/01 13:14:44;;;;;;;15.18;8.20;;;10.90;99.90;;;;;;4903568;29;37302;-78
2023/04/01 13:17:21;;;;;;;11.85;6.85;;;10.90;99.90;;;;;;4887328;29;39250;-77
2023/04/01 13:20:13;;;;;;;14.45;7.38;;;10.90;99.90;;;;;;4889053;29;37232;-76
2023/04/01 13:22:57;;;;;;;13.53;6.57;;;10.90;99.90;;;;;;4907903;29;48357;-77
2023/04/01 13:25:35;;;;;;;12.97;6.10;;;10.90;99.90;;;;;;4891580;29;36573;-77
2023/04/01 13:28:34;;;;;;;10.45;6.72;;;10.70;99.90;;;;;;4915919;29;37895;-78
2023/04/01 13:31:09;;;;;;;13.60;7.03;;;10.70;99.90;;;;;;4908073;29;48407;-76